Time;durP1;ratioP1;P1;durP2;ratioP2;P2;SDS_P1;SDS_P2;PMS_P1;PMS_P2;Temp;Humidity;BMP_temperature;BMP_pressure;BME280_temperature;BME280_humidity;BME280_pressure;Samples;Min_cycle;Max_cycle;Signal;HPM_P1;HPM_P2
2021/07/23 00:01:34;;;;;;;;;;;;;;;27.64;37.96;100339.38;4395861;32;33654;-88
2021/07/23 00:04:03;;;;;;;;;;;;;;;27.23;38.79;100337.81;4382812;32;34433;-90
2021/07/23 00:06:32;;;;;;;;;;;;;;;27.09;39.19;100333.75;4395149;32;33938;-90
2021/07/23 00:09:00;;;;;;;;;;;;;;;26.70;40.07;100339.00;4394825;32;35207;-88
2021/07/23 00:11:28;;;;;;;;;;;;;;;27.46;38.51;100343.78;4383317;32;32948;-88
2021/07/23 00:13:59;;;;;;;;;;;;;;;27.96;37.46;100334.63;4383404;32;33700;-89
2021/07/23 00:16:27;;;;;;;;;;;;;;;28.15;36.98;100333.75;4383058;32;35433;-89
2021/07/23 00:18:55;;;;;;;;;;;;;;;27.46;38.22;100330.41;4383233;32;37580;-90
2021/07/23 00:21:23;;;;;;;;;;;;;;;27.29;38.36;100335.44;4382535;32;35042;-90
2021/07/23 00:23:50;;;;;;;;;;;;;;;28.05;36.54;100333.78;4407081;32;36455;-91
2021/07/23 00:26:19;;;;;;;;;;;;;;;26.78;38.95;100336.56;4395164;32;35136;-89
2021/07/23 00:28:47;;;;;;;;;;;;;;;27.45;37.55;100334.88;4382430;32;33963;-88
2021/07/23 00:31:15;;;;;;;;;;;;;;;26.76;38.82;100338.50;4383041;32;36162;-90
2021/07/23 00:33:44;;;;;;;;;;;;;;;26.71;39.03;100338.03;4407210;32;36324;-88
2021/07/23 00:36:11;;;;;;;;;;;;;;;26.52;39.46;100339.69;4420838;32;34347;-91
2021/07/23 00:38:39;;;;;;;;;;;;;;;27.12;38.12;100336.13;4395101;32;35186;-89
2021/07/23 00:41:07;;;;;;;;;;;;;;;26.67;39.12;100345.47;4382842;32;34095;-90
2021/07/23 00:43:35;;;;;;;;;;;;;;;26.98;38.48;100343.59;4395467;32;35882;-88
2021/07/23 00:46:05;;;;;;;;;;;;;;;27.42;37.63;100342.37;4395516;32;35275;-91
2021/07/23 00:48:33;;;;;;;;;;;;;;;27.11;38.15;100337.12;4395686;32;33976;-89
2021/07/23 00:51:01;;;;;;;;;;;;;;;26.23;40.07;100337.75;4382477;32;34647;-89
2021/07/23 00:53:29;;;;;;;;;;;;;;;26.64;39.15;100340.41;4382755;32;36576;-88
2021/07/23 00:56:01;;;;;;;;;;;;;;;26.79;38.76;100346.22;4382429;32;35172;-89
2021/07/23 00:58:31;;;;;;;;;;;;;;;26.22;39.94;100337.88;4408390;32;33076;-90
2021/07/23 01:00:59;;;;;;;;;;;;;;;26.37;39.73;100331.19;4382668;32;34210;-91
2021/07/23 01:03:29;;;;;;;;;;;;;;;27.23;37.88;100335.16;4395414;32;33294;-90
2021/07/23 01:05:58;;;;;;;;;;;;;;;26.65;39.09;100339.44;4382654;32;33689;-89
2021/07/23 01:08:27;;;;;;;;;;;;;;;26.85;38.85;100334.16;4382779;32;35921;-89
2021/07/23 01:10:55;;;;;;;;;;;;;;;26.42;39.63;100331.66;4382051;32;33954;-90
2021/07/23 01:13:24;;;;;;;;;;;;;;;26.68;38.76;100331.13;4394184;32;35146;-90
2021/07/23 01:15:52;;;;;;;;;;;;;;;26.30;39.68;100325.56;4382657;32;33732;-88
2021/07/23 01:18:21;;;;;;;;;;;;;;;26.37;39.63;100320.50;4382427;32;35868;-90
2021/07/23 01:20:49;;;;;;;;;;;;;;;26.34;39.76;100326.13;4394974;32;35825;-90
2021/07/23 01:23:25;;;;;;;;;;;;;;;26.57;39.25;100334.78;4394910;32;34976;-88
2021/07/23 01:25:52;;;;;;;;;;;;;;;26.40;39.49;100325.56;4380902;32;35251;-90
2021/07/23 01:28:20;;;;;;;;;;;;;;;26.23;39.96;100326.22;4382722;32;34046;-89
2021/07/23 01:30:48;;;;;;;;;;;;;;;26.43;39.45;100321.78;4383084;32;33774;-90
2021/07/23 01:33:18;;;;;;;;;;;;;;;26.90;38.34;100322.06;4382512;32;34751;-89
2021/07/23 01:35:46;;;;;;;;;;;;;;;25.75;40.77;100327.66;4382236;32;37424;-90
2021/07/23 01:38:14;;;;;;;;;;;;;;;26.66;38.74;100320.59;4394253;32;33891;-88
2021/07/23 01:40:42;;;;;;;;;;;;;;;26.71;38.63;100322.91;4394301;32;33056;-90
2021/07/23 01:43:10;;;;;;;;;;;;;;;27.10;37.93;100316.72;4406440;32;34748;-89
2021/07/23 01:45:40;;;;;;;;;;;;;;;26.32;39.53;100318.25;4395241;32;34623;-89
2021/07/23 01:48:10;;;;;;;;;;;;;;;26.19;39.52;100328.31;4395600;32;36019;-89
2021/07/23 01:50:38;;;;;;;;;;;;;;;26.41;39.24;100318.44;4381998;32;34249;-90
2021/07/23 01:53:06;;;;;;;;;;;;;;;26.29;39.47;100315.84;4394086;32;35411;-91
2021/07/23 01:55:35;;;;;;;;;;;;;;;26.25;39.52;100316.28;4382292;32;35462;-91
2021/07/23 01:58:03;;;;;;;;;;;;;;;26.47;39.03;100320.53;4394626;32;34932;-90
2021/07/23 02:00:33;;;;;;;;;;;;;;;26.62;38.74;100308.50;4381950;32;33481;-90
2021/07/23 02:03:03;;;;;;;;;;;;;;;26.09;39.75;100314.94;4382049;32;33685;-88
2021/07/23 02:05:31;;;;;;;;;;;;;;;25.40;41.41;100313.66;4393950;32;34743;-89
2021/07/23 02:08:00;;;;;;;;;;;;;;;25.46;41.20;100317.63;4381408;32;34418;-87
2021/07/23 02:10:28;;;;;;;;;;;;;;;25.61;40.65;100316.34;4381853;32;33583;-90
2021/07/23 02:12:56;;;;;;;;;;;;;;;25.89;39.93;100321.97;4394597;32;34466;-89
2021/07/23 02:15:24;;;;;;;;;;;;;;;26.50;38.71;100313.09;4393991;32;37464;-89
2021/07/23 02:17:52;;;;;;;;;;;;;;;25.73;40.53;100316.25;4406266;32;35124;-90
2021/07/23 02:20:20;;;;;;;;;;;;;;;26.14;39.71;100310.03;4394213;32;34274;-90
2021/07/23 02:22:48;;;;;;;;;;;;;;;25.67;40.75;100302.50;4419720;32;35244;-90
2021/07/23 02:25:17;;;;;;;;;;;;;;;25.48;41.10;100310.34;4413555;32;34431;-88
2021/07/23 02:27:44;;;;;;;;;;;;;;;26.58;38.70;100304.41;4415547;32;34492;-88
2021/07/23 02:30:12;;;;;;;;;;;;;;;26.46;38.85;100302.84;4401196;32;32871;-87
2021/07/23 02:32:40;;;;;;;;;;;;;;;26.86;37.90;100304.63;4415010;32;34402;-88
2021/07/23 02:35:08;;;;;;;;;;;;;;;25.56;40.62;100302.53;4398974;32;37573;-87
2021/07/23 02:37:37;;;;;;;;;;;;;;;26.61;38.27;100308.63;4396413;32;34900;-90
2021/07/23 02:40:06;;;;;;;;;;;;;;;26.19;39.22;100309.62;4384113;32;34316;-90
2021/07/23 02:42:33;;;;;;;;;;;;;;;25.92;39.89;100307.53;4395866;32;35535;-90
2021/07/23 02:45:01;;;;;;;;;;;;;;;25.96;39.85;100304.44;4408890;32;35245;-89
2021/07/23 02:47:28;;;;;;;;;;;;;;;26.08;39.49;100301.72;4409273;32;34303;-90
2021/07/23 02:49:57;;;;;;;;;;;;;;;26.37;38.79;100301.00;4409308;32;34130;-91
2021/07/23 02:52:27;;;;;;;;;;;;;;;26.16;39.22;100302.72;4383840;32;37040;-88
2021/07/23 02:54:55;;;;;;;;;;;;;;;25.98;39.63;100304.28;4396550;32;34448;-92
2021/07/23 02:57:22;;;;;;;;;;;;;;;25.93;39.75;100302.03;4396373;32;33902;-91
2021/07/23 02:59:50;;;;;;;;;;;;;;;25.40;40.73;100295.00;4396323;32;34632;-90
2021/07/23 03:02:18;;;;;;;;;;;;;;;25.21;41.35;100293.03;4396724;32;34239;-89
2021/07/23 03:04:46;;;;;;;;;;;;;;;25.65;40.42;100295.59;4395488;32;35724;-89
2021/07/23 03:07:15;;;;;;;;;;;;;;;25.46;40.99;100298.97;4395256;32;34886;-90
2021/07/23 03:09:45;;;;;;;;;;;;;;;25.66;40.45;100294.59;4395724;32;32648;-90
2021/07/23 03:12:14;;;;;;;;;;;;;;;25.88;39.93;100290.09;4395629;32;33492;-90
2021/07/23 03:14:42;;;;;;;;;;;;;;;25.38;41.07;100291.63;4395717;32;35695;-89
2021/07/23 03:17:10;;;;;;;;;;;;;;;25.52;40.85;100293.12;4383493;32;33117;-90
2021/07/23 03:19:39;;;;;;;;;;;;;;;24.84;42.27;100294.25;4383393;32;34528;-89
2021/07/23 03:22:07;;;;;;;;;;;;;;;24.81;42.30;100293.66;4395217;32;35771;-90
2021/07/23 03:24:35;;;;;;;;;;;;;;;25.52;40.75;100292.28;4407354;32;33980;-88
2021/07/23 03:27:03;;;;;;;;;;;;;;;25.80;39.95;100291.56;4407530;32;34494;-91
2021/07/23 03:29:33;;;;;;;;;;;;;;;25.44;40.84;100296.44;4407561;32;32492;-89
2021/07/23 03:32:01;;;;;;;;;;;;;;;25.60;40.59;100298.63;4395309;32;35057;-89
2021/07/23 03:34:32;;;;;;;;;;;;;;;25.18;41.49;100296.78;4396938;32;34554;-91
2021/07/23 03:37:01;;;;;;;;;;;;;;;25.47;40.89;100298.00;4397144;32;34445;-88
2021/07/23 03:39:30;;;;;;;;;;;;;;;25.59;40.77;100294.28;4383341;32;35257;-88
2021/07/23 03:41:59;;;;;;;;;;;;;;;24.95;42.14;100295.19;4420831;32;34306;-90
2021/07/23 03:44:27;;;;;;;;;;;;;;;26.09;39.75;100298.09;4396051;32;34190;-90
2021/07/23 03:46:55;;;;;;;;;;;;;;;25.67;40.62;100290.94;4383119;32;35779;-90
2021/07/23 03:49:23;;;;;;;;;;;;;;;25.78;40.30;100290.00;4394279;32;35505;-88
2021/07/23 03:51:52;;;;;;;;;;;;;;;25.84;40.32;100293.00;4395608;32;37290;-90
2021/07/23 03:54:20;;;;;;;;;;;;;;;25.17;42.04;100288.94;4383732;32;36437;-90
2021/07/23 03:56:47;;;;;;;;;;;;;;;25.65;41.00;100295.59;4382881;32;36684;-89
2021/07/23 03:59:17;;;;;;;;;;;;;;;25.11;42.31;100290.25;4383586;32;35119;-90
2021/07/23 04:01:45;;;;;;;;;;;;;;;25.64;41.07;100299.22;4395769;32;35968;-89
2021/07/23 04:04:13;;;;;;;;;;;;;;;25.74;40.79;100296.59;4382798;32;35430;-89
2021/07/23 04:06:41;;;;;;;;;;;;;;;25.99;40.26;100296.19;4395948;32;35075;-90
2021/07/23 04:09:09;;;;;;;;;;;;;;;25.76;40.74;100294.66;4382962;32;36314;-89
2021/07/23 04:11:46;;;;;;;;;;;;;;;26.13;39.97;100288.81;4383123;32;34911;-91
2021/07/23 04:14:14;;;;;;;;;;;;;;;25.88;40.63;100300.75;4383412;32;35251;-91
2021/07/23 04:16:42;;;;;;;;;;;;;;;26.26;39.82;100291.22;4383092;32;35597;-88
2021/07/23 04:19:10;;;;;;;;;;;;;;;26.37;39.73;100299.16;4382677;32;35512;-89
2021/07/23 04:21:41;;;;;;;;;;;;;;;26.29;39.90;100296.31;4395761;32;33178;-89
2021/07/23 04:24:10;;;;;;;;;;;;;;;26.42;39.72;100296.06;4396194;32;35215;-91
2021/07/23 04:26:38;;;;;;;;;;;;;;;26.19;40.16;100288.25;4396038;32;34313;-89
2021/07/23 04:29:05;;;;;;;;;;;;;;;26.30;40.18;100292.66;4395536;32;33323;-88
2021/07/23 04:31:33;;;;;;;;;;;;;;;26.73;39.44;100285.34;4407065;32;36069;-91
2021/07/23 04:34:01;;;;;;;;;;;;;;;26.88;39.22;100288.44;4383051;32;36106;-89
2021/07/23 04:36:32;;;;;;;;;;;;;;;26.96;39.04;100300.12;4396306;32;34613;-89
2021/07/23 04:39:03;;;;;;;;;;;;;;;27.22;38.75;100304.91;4407394;32;33802;-89
2021/07/23 04:41:31;;;;;;;;;;;;;;;27.22;38.83;100302.22;4383077;32;35057;-89
2021/07/23 04:43:59;;;;;;;;;;;;;;;26.92;39.39;100296.00;4395702;32;34918;-91
2021/07/23 04:46:27;;;;;;;;;;;;;;;27.58;37.82;100291.78;4382399;32;36731;-89
2021/07/23 04:48:55;;;;;;;;;;;;;;;27.34;38.40;100300.25;4395278;32;32756;-88
2021/07/23 04:51:23;;;;;;;;;;;;;;;27.76;37.54;100291.00;4382699;32;33171;-87
2021/07/23 04:53:56;;;;;;;;;;;;;;;27.81;37.59;100286.06;4395317;32;35669;-90
2021/07/23 04:56:25;;;;;;;;;;;;;;;27.62;38.01;100285.13;4421794;32;34244;-89
2021/07/23 04:58:53;;;;;;;;;;;;;;;27.94;37.59;100286.59;4383186;32;32649;-89
2021/07/23 05:01:21;;;;;;;;;;;;;;;27.74;38.25;100293.84;4394756;32;34779;-88
2021/07/23 05:03:48;;;;;;;;;;;;;;;28.32;37.15;100289.25;4382400;32;35992;-88
2021/07/23 05:06:16;;;;;;;;;;;;;;;28.31;37.13;100284.91;4408058;32;34188;-90
2021/07/23 05:08:44;;;;;;;;;;;;;;;28.03;37.49;100287.56;4409235;32;33484;-89
2021/07/23 05:11:15;;;;;;;;;;;;;;;28.01;37.61;100286.88;4395239;32;34935;-89
2021/07/23 05:13:44;;;;;;;;;;;;;;;28.28;36.39;100280.69;4396710;32;34717;-89
2021/07/23 05:16:14;;;;;;;;;;;;;;;28.58;35.61;100284.00;4383174;32;35738;-91
2021/07/23 05:18:42;;;;;;;;;;;;;;;28.61;35.50;100290.91;4383019;32;34295;-90
2021/07/23 05:21:10;;;;;;;;;;;;;;;28.55;35.68;100291.53;4419861;32;35157;-88
2021/07/23 05:23:38;;;;;;;;;;;;;;;28.64;35.57;100290.63;4382478;32;36353;-90
2021/07/23 05:26:06;;;;;;;;;;;;;;;28.07;36.72;100272.06;4407627;32;34984;-89
2021/07/23 05:28:34;;;;;;;;;;;;;;;28.57;36.02;100282.31;4419798;32;34305;-88
2021/07/23 05:31:06;;;;;;;;;;;;;;;27.89;37.62;100274.63;4407394;32;33092;-88
2021/07/23 05:33:34;;;;;;;;;;;;;;;28.00;37.64;100283.31;4384994;32;34304;-88
2021/07/23 05:36:02;;;;;;;;;;;;;;;28.73;36.23;100276.34;4380275;32;34583;-89
2021/07/23 05:38:30;;;;;;;;;;;;;;;28.48;36.89;100278.72;4380523;32;33756;-87
2021/07/23 05:41:05;;;;;;;;;;;;;;;28.69;36.24;100274.09;4379768;32;35411;-89
2021/07/23 05:43:32;;;;;;;;;;;;;;;28.99;35.55;100270.19;4367406;32;34603;-88
2021/07/23 05:46:06;;;;;;;;;;;;;;;28.80;36.07;100280.09;4379531;32;35172;-88
2021/07/23 05:48:37;;;;;;;;;;;;;;;29.11;34.98;100284.22;4367609;32;33935;-88
2021/07/23 05:51:06;;;;;;;;;;;;;;;29.45;33.90;100281.66;4379459;32;35089;-88
2021/07/23 05:53:33;;;;;;;;;;;;;;;29.43;33.70;100283.63;4367040;32;35705;-89
2021/07/23 05:56:01;;;;;;;;;;;;;;;29.91;32.77;100283.28;4379781;32;34466;-88
2021/07/23 05:58:29;;;;;;;;;;;;;;;29.94;32.73;100283.81;4392493;32;33416;-87
2021/07/23 06:00:56;;;;;;;;;;;;;;;29.97;31.94;100280.78;4379100;32;35436;-86
2021/07/23 06:03:24;;;;;;;;;;;;;;;29.86;32.48;100278.38;4405655;32;34975;-86
2021/07/23 06:05:51;;;;;;;;;;;;;;;30.19;31.84;100273.16;4367353;32;35198;-90
2021/07/23 06:08:19;;;;;;;;;;;;;;;30.35;31.55;100283.12;4379901;32;33176;-88
2021/07/23 06:10:47;;;;;;;;;;;;;;;30.82;30.75;100279.06;4392020;32;34974;-87
2021/07/23 06:13:14;;;;;;;;;;;;;;;30.52;31.19;100277.81;4368632;32;33919;-88
2021/07/23 06:15:41;;;;;;;;;;;;;;;30.84;30.83;100281.56;4369209;32;35690;-88
2021/07/23 06:18:09;;;;;;;;;;;;;;;30.88;30.82;100278.38;4406813;32;33384;-89
2021/07/23 06:20:36;;;;;;;;;;;;;;;30.70;31.11;100280.38;4394269;32;33714;-88
2021/07/23 06:23:04;;;;;;;;;;;;;;;30.78;30.85;100280.38;4406060;32;34837;-87
2021/07/23 06:25:31;;;;;;;;;;;;;;;30.86;30.93;100276.84;4381012;32;34954;-89
2021/07/23 06:27:59;;;;;;;;;;;;;;;31.10;30.63;100281.44;4369092;32;33978;-88
2021/07/23 06:30:26;;;;;;;;;;;;;;;30.37;31.61;100277.56;4369194;32;36362;-88
2021/07/23 06:32:54;;;;;;;;;;;;;;;31.17;30.45;100282.44;4395814;32;34150;-87
2021/07/23 06:35:21;;;;;;;;;;;;;;;31.19;30.17;100282.28;4371429;32;34672;-88
2021/07/23 06:37:50;;;;;;;;;;;;;;;31.00;30.24;100281.56;4372842;32;34127;-88
2021/07/23 06:40:19;;;;;;;;;;;;;;;30.91;30.57;100279.88;4388884;32;34059;-87
2021/07/23 06:42:46;;;;;;;;;;;;;;;31.75;29.20;100275.16;4398929;32;34566;-85
2021/07/23 06:45:14;;;;;;;;;;;;;;;31.88;29.15;100277.28;4385926;32;34507;-86
2021/07/23 06:47:42;;;;;;;;;;;;;;;31.90;28.98;100280.66;4397960;32;32657;-88
2021/07/23 06:50:10;;;;;;;;;;;;;;;31.98;28.62;100282.47;4409308;32;34426;-87
2021/07/23 06:52:38;;;;;;;;;;;;;;;31.63;29.08;100281.91;4382850;32;34869;-87
2021/07/23 06:55:05;;;;;;;;;;;;;;;31.66;28.96;100286.09;4381920;32;33916;-86
2021/07/23 06:57:34;;;;;;;;;;;;;;;31.24;29.80;100293.38;4408169;32;33133;-88
2021/07/23 07:00:03;;;;;;;;;;;;;;;31.88;28.77;100287.22;4406848;32;34184;-87
2021/07/23 07:02:30;;;;;;;;;;;;;;;31.76;28.83;100278.69;4381827;32;36199;-87
2021/07/23 07:04:58;;;;;;;;;;;;;;;31.73;28.80;100285.25;4394247;32;34445;-88
2021/07/23 07:07:25;;;;;;;;;;;;;;;32.30;27.86;100275.28;4381675;32;32969;-86
2021/07/23 07:09:53;;;;;;;;;;;;;;;32.40;27.72;100284.00;4369633;32;35006;-87
2021/07/23 07:12:20;;;;;;;;;;;;;;;31.83;28.23;100284.22;4381346;32;34332;-88
2021/07/23 07:14:48;;;;;;;;;;;;;;;32.01;27.38;100282.13;4368403;32;34514;-89
2021/07/23 07:17:18;;;;;;;;;;;;;;;32.02;27.63;100280.25;4393583;32;33537;-89
2021/07/23 07:19:45;;;;;;;;;;;;;;;32.21;27.54;100279.03;4381394;32;35121;-88
2021/07/23 07:22:13;;;;;;;;;;;;;;;31.44;29.00;100277.72;4368681;32;35354;-88
2021/07/23 07:24:40;;;;;;;;;;;;;;;31.45;28.66;100276.69;4367645;32;35675;-87
2021/07/23 07:27:07;;;;;;;;;;;;;;;31.89;28.06;100284.34;4381944;32;33680;-87
2021/07/23 07:29:36;;;;;;;;;;;;;;;31.53;28.57;100278.53;4381403;32;34281;-88
2021/07/23 07:32:04;;;;;;;;;;;;;;;32.00;27.89;100280.44;4368445;32;32959;-88
2021/07/23 07:34:34;;;;;;;;;;;;;;;31.12;28.27;100272.19;4368245;32;32735;-87
2021/07/23 07:37:02;;;;;;;;;;;;;;;31.61;27.75;100276.69;4393324;32;34364;-87
2021/07/23 07:39:31;;;;;;;;;;;;;;;32.02;27.49;100272.16;4407243;32;34106;-89
2021/07/23 07:42:00;;;;;;;;;;;;;;;32.14;27.17;100271.63;4381398;32;33973;-87
2021/07/23 07:44:28;;;;;;;;;;;;;;;32.36;26.95;100273.75;4381090;32;34227;-86
2021/07/23 07:46:57;;;;;;;;;;;;;;;32.23;26.83;100272.47;4393819;32;33432;-85
2021/07/23 07:49:25;;;;;;;;;;;;;;;31.26;27.72;100273.38;4369110;32;33295;-87
2021/07/23 07:51:52;;;;;;;;;;;;;;;31.91;26.84;100265.31;4369088;32;34664;-87
2021/07/23 07:54:19;;;;;;;;;;;;;;;32.13;26.96;100266.41;4368381;32;33036;-86
2021/07/23 07:56:47;;;;;;;;;;;;;;;31.87;27.47;100261.28;4380262;32;31858;-88
2021/07/23 07:59:14;;;;;;;;;;;;;;;32.13;27.39;100263.72;4380986;32;35665;-89
2021/07/23 08:01:42;;;;;;;;;;;;;;;31.07;28.68;100269.19;4381414;32;34175;-87
2021/07/23 08:04:10;;;;;;;;;;;;;;;31.93;27.20;100263.31;4407384;32;34219;-89
2021/07/23 08:06:40;;;;;;;;;;;;;;;32.50;26.81;100256.81;4393369;32;31483;-86
2021/07/23 08:09:12;;;;;;;;;;;;;;;33.03;26.26;100256.94;4394039;32;33533;-89
2021/07/23 08:11:40;;;;;;;;;;;;;;;33.19;26.13;100252.41;4394275;32;34932;-89
2021/07/23 08:14:08;;;;;;;;;;;;;;;33.30;25.98;100258.22;4406808;32;34653;-88
2021/07/23 08:16:36;;;;;;;;;;;;;;;33.10;25.90;100255.19;4393428;32;33736;-87
2021/07/23 08:19:04;;;;;;;;;;;;;;;32.26;26.84;100253.22;4402878;32;34253;-85
2021/07/23 08:21:32;;;;;;;;;;;;;;;32.14;26.80;100262.72;4408378;32;35702;-86
2021/07/23 08:24:00;;;;;;;;;;;;;;;32.56;26.06;100263.34;4382941;32;33774;-86
2021/07/23 08:26:28;;;;;;;;;;;;;;;32.92;25.63;100260.06;4383094;32;32139;-87
2021/07/23 08:28:55;;;;;;;;;;;;;;;32.69;26.13;100265.44;4396093;32;35029;-88
2021/07/23 08:31:22;;;;;;;;;;;;;;;32.85;25.75;100256.41;4408740;32;34405;-86
2021/07/23 08:33:51;;;;;;;;;;;;;;;32.97;25.68;100257.66;4383350;32;36144;-86
2021/07/23 08:36:18;;;;;;;;;;;;;;;33.69;24.75;100258.16;4421869;32;33607;-87
2021/07/23 08:38:46;;;;;;;;;;;;;;;33.83;24.57;100261.94;4408483;32;33984;-88
2021/07/23 08:41:14;;;;;;;;;;;;;;;34.02;24.39;100255.94;4422004;32;34293;-88
2021/07/23 08:43:44;;;;;;;;;;;;;;;34.30;24.19;100249.81;4422607;32;34368;-88
2021/07/23 08:46:12;;;;;;;;;;;;;;;33.81;25.11;100259.41;4408249;32;33913;-89
2021/07/23 08:48:40;;;;;;;;;;;;;;;33.03;25.76;100256.09;4395998;32;34641;-86
2021/07/23 08:51:08;;;;;;;;;;;;;;;33.66;24.54;100255.84;4395692;32;34748;-86
2021/07/23 08:53:35;;;;;;;;;;;;;;;33.74;24.46;100248.47;4395647;32;35308;-87
2021/07/23 08:56:23;;;;;;;;;;;;;;;33.81;24.38;100258.56;4395663;32;34313;-84
2021/07/23 08:58:53;;;;;;;;;;;;;;;34.63;23.41;100249.34;4395535;32;33055;-86
2021/07/23 09:01:21;;;;;;;;;;;;;;;34.26;23.90;100241.25;4382577;32;34593;-88
2021/07/23 09:03:49;;;;;;;;;;;;;;;34.42;23.35;100242.06;4395100;32;33544;-87
2021/07/23 09:06:16;;;;;;;;;;;;;;;34.87;22.98;100250.03;4408704;32;33671;-88
2021/07/23 09:08:45;;;;;;;;;;;;;;;34.60;23.92;100247.88;4393410;32;884988;-88
2021/07/23 09:11:13;;;;;;;;;;;;;;;35.04;23.35;100243.28;4407998;32;33962;-87
2021/07/23 09:13:40;;;;;;;;;;;;;;;34.98;22.39;100240.53;4394627;32;33516;-88
2021/07/23 09:16:24;;;;;;;;;;;;;;;35.34;22.39;100239.56;4407903;32;33410;-87
2021/07/23 09:19:04;;;;;;;;;;;;;;;35.75;21.93;100236.06;4407768;32;33872;-88
2021/07/23 09:21:32;;;;;;;;;;;;;;;34.88;22.51;100239.00;4395514;32;34388;-86
2021/07/23 09:24:00;;;;;;;;;;;;;;;34.46;23.39;100246.06;4407991;32;34952;-86
2021/07/23 09:26:29;;;;;;;;;;;;;;;35.72;21.67;100231.88;4410897;32;34128;-87
2021/07/23 09:28:57;;;;;;;;;;;;;;;35.70;21.81;100230.41;4398544;32;32527;-88
2021/07/23 09:31:28;;;;;;;;;;;;;;;35.62;21.86;100228.69;4399081;32;36788;-89
2021/07/23 09:34:00;;;;;;;;;;;;;;;34.75;23.07;100234.25;4400475;32;34203;-87
2021/07/23 09:36:28;;;;;;;;;;;;;;;34.24;23.34;100231.66;4426548;32;33498;-84
2021/07/23 09:39:06;;;;;;;;;;;;;;;34.56;23.20;100227.66;4397723;32;33871;-86
2021/07/23 09:41:36;;;;;;;;;;;;;;;35.93;21.59;100224.72;4408254;32;34369;-87
2021/07/23 09:44:05;;;;;;;;;;;;;;;36.06;21.21;100230.19;4406666;32;32993;-88
2021/07/23 09:46:33;;;;;;;;;;;;;;;36.04;21.10;100218.69;4419184;32;33118;-86
2021/07/23 09:49:21;;;;;;;;;;;;;;;36.04;21.05;100223.28;4394778;32;35219;-86
2021/07/23 09:51:49;;;;;;;;;;;;;;;35.66;21.62;100216.44;4407518;32;35012;-86
2021/07/23 09:54:18;;;;;;;;;;;;;;;36.36;19.94;100210.06;4395528;32;34147;-88
2021/07/23 09:56:48;;;;;;;;;;;;;;;37.02;19.45;100216.59;4384750;32;32466;-87
2021/07/23 09:59:16;;;;;;;;;;;;;;;36.65;19.69;100211.53;4394740;32;33764;-86
2021/07/23 10:01:43;;;;;;;;;;;;;;;36.40;19.79;100216.72;4395094;32;34362;-88
2021/07/23 10:04:20;;;;;;;;;;;;;;;36.27;20.25;100207.50;4406822;32;35245;-88
2021/07/23 10:06:52;;;;;;;;;;;;;;;35.26;21.94;100214.31;4395553;32;33195;-86
2021/07/23 10:09:21;;;;;;;;;;;;;;;34.93;22.53;100204.06;4396157;32;34132;-88
2021/07/23 10:11:48;;;;;;;;;;;;;;;34.33;22.59;100208.91;4407647;32;35866;-86
2021/07/23 10:14:20;;;;;;;;;;;;;;;35.62;20.78;100201.59;4396430;32;34296;-87
2021/07/23 10:16:49;;;;;;;;;;;;;;;35.39;21.05;100202.72;4382153;32;32121;-87
2021/07/23 10:19:22;;;;;;;;;;;;;;;34.41;22.68;100199.81;4394847;32;34791;-86
2021/07/23 10:21:56;;;;;;;;;;;;;;;35.40;21.46;100195.47;4395279;32;32943;-85
2021/07/23 10:24:25;;;;;;;;;;;;;;;35.16;21.39;100194.03;4395816;32;34864;-87
2021/07/23 10:26:52;;;;;;;;;;;;;;;35.44;21.22;100186.72;4393744;32;34780;-87
2021/07/23 10:29:38;;;;;;;;;;;;;;;35.50;21.00;100190.53;4407160;32;33895;-86
2021/07/23 10:32:26;;;;;;;;;;;;;;;35.64;20.57;100196.00;4406661;32;36043;-85
2021/07/23 10:34:58;;;;;;;;;;;;;;;35.47;21.21;100185.47;4407885;32;35039;-87
2021/07/23 10:37:32;;;;;;;;;;;;;;;35.38;20.77;100179.41;4396804;32;34785;-88
2021/07/23 10:40:20;;;;;;;;;;;;;;;35.82;20.50;100177.31;4407511;32;34326;-87
2021/07/23 10:42:56;;;;;;;;;;;;;;;35.45;21.05;100174.03;4405879;32;35062;-87
2021/07/23 10:45:32;;;;;;;;;;;;;;;33.85;23.06;100171.53;4420718;32;35232;-86
2021/07/23 10:48:00;;;;;;;;;;;;;;;33.10;24.25;100165.28;4406846;32;33667;-87
2021/07/23 10:50:27;;;;;;;;;;;;;;;34.60;22.73;100163.19;4394266;32;34297;-85
2021/07/23 10:52:54;;;;;;;;;;;;;;;35.26;20.67;100162.00;4406373;32;34556;-86
2021/07/23 10:55:24;;;;;;;;;;;;;;;34.37;21.55;100163.38;4406773;32;33609;-86
2021/07/23 10:58:10;;;;;;;;;;;;;;;35.38;20.16;100165.00;4407034;32;33878;-87
2021/07/23 11:00:50;;;;;;;;;;;;;;;35.97;20.06;100162.78;4408545;32;34261;-85
2021/07/23 11:03:37;;;;;;;;;;;;;;;35.42;20.32;100158.16;4396868;32;34428;-87
2021/07/23 11:06:17;;;;;;;;;;;;;;;35.87;20.67;100146.91;4396513;32;34835;-87
2021/07/23 11:08:52;;;;;;;;;;;;;;;36.34;19.99;100153.31;4423168;32;34022;-87
2021/07/23 11:11:21;;;;;;;;;;;;;;;36.55;19.87;100144.12;4397653;32;34652;-88
2021/07/23 11:13:48;;;;;;;;;;;;;;;36.98;19.03;100147.44;4423699;32;34349;-87
2021/07/23 11:16:17;;;;;;;;;;;;;;;36.79;19.04;100141.78;4423654;32;34499;-87
2021/07/23 11:18:58;;;;;;;;;;;;;;;36.79;18.05;100141.78;4422938;32;34129;-85
2021/07/23 11:21:33;;;;;;;;;;;;;;;36.53;18.06;100138.06;4409199;32;34278;-88
2021/07/23 11:24:09;;;;;;;;;;;;;;;37.01;17.21;100130.75;4409390;32;33932;-88
2021/07/23 11:26:36;;;;;;;;;;;;;;;36.94;17.23;100130.75;4396594;32;34292;-86
2021/07/23 11:29:04;;;;;;;;;;;;;;;37.13;17.17;100134.47;4422630;32;34210;-86
2021/07/23 11:31:35;;;;;;;;;;;;;;;37.60;16.79;100135.16;4396161;32;34745;-88
2021/07/23 11:34:22;;;;;;;;;;;;;;;37.19;17.21;100136.34;4395982;32;36221;-86
2021/07/23 11:36:50;;;;;;;;;;;;;;;37.14;17.03;100128.00;4409208;32;34801;-86
2021/07/23 11:39:24;;;;;;;;;;;;;;;36.27;17.49;100120.72;4397789;32;32925;-85
2021/07/23 11:41:58;;;;;;;;;;;;;;;36.54;17.28;100122.59;4404894;32;34079;-86
2021/07/23 11:44:30;;;;;;;;;;;;;;;37.06;17.02;100117.38;4411207;32;35137;-85
2021/07/23 11:46:58;;;;;;;;;;;;;;;36.64;17.40;100119.50;4395288;32;35279;-86
2021/07/23 11:49:30;;;;;;;;;;;;;;;37.33;16.62;100115.41;4395041;32;33500;-85
2021/07/23 11:51:58;;;;;;;;;;;;;;;37.46;16.17;100114.53;4421177;32;35039;-86
2021/07/23 11:54:26;;;;;;;;;;;;;;;38.21;15.80;100111.16;4420790;32;35401;-86
2021/07/23 11:56:59;;;;;;;;;;;;;;;38.07;16.11;100113.16;4396493;32;34128;-85
2021/07/23 11:59:27;;;;;;;;;;;;;;;38.12;16.33;100117.97;4383653;32;32355;-84
2021/07/23 12:01:54;;;;;;;;;;;;;;;38.70;15.58;100110.59;4407512;32;35594;-87
2021/07/23 12:04:29;;;;;;;;;;;;;;;39.19;15.13;100103.41;4402154;32;34770;-84
2021/07/23 12:06:56;;;;;;;;;;;;;;;38.81;15.22;100101.69;4383965;32;35700;-84
2021/07/23 12:09:24;;;;;;;;;;;;;;;39.00;15.37;100099.00;4420672;32;34108;-85
2021/07/23 12:11:51;;;;;;;;;;;;;;;38.62;15.70;100092.66;4408882;32;34557;-84
2021/07/23 12:14:19;;;;;;;;;;;;;;;39.04;15.41;100094.78;4396060;32;35739;-86
2021/07/23 12:16:47;;;;;;;;;;;;;;;38.20;15.79;100098.66;4396404;32;34370;-86
2021/07/23 12:19:18;;;;;;;;;;;;;;;39.15;14.95;100085.84;4396607;32;35677;-87
2021/07/23 12:21:45;;;;;;;;;;;;;;;39.09;14.53;100090.31;4396465;32;34466;-85
2021/07/23 12:24:14;;;;;;;;;;;;;;;39.15;14.39;100091.28;4396709;32;34653;-86
2021/07/23 12:26:42;;;;;;;;;;;;;;;38.97;14.58;100081.22;4396897;32;34477;-86
2021/07/23 12:29:10;;;;;;;;;;;;;;;39.25;14.41;100079.88;4395262;32;32191;-87
2021/07/23 12:31:38;;;;;;;;;;;;;;;39.67;14.17;100077.25;4422249;32;35768;-86
2021/07/23 12:34:09;;;;;;;;;;;;;;;39.97;13.62;100084.56;4408714;32;35058;-84
2021/07/23 12:36:43;;;;;;;;;;;;;;;40.16;13.59;100077.16;4421953;32;34284;-87
2021/07/23 12:39:10;;;;;;;;;;;;;;;40.23;14.01;100085.22;4383062;32;33579;-86
2021/07/23 12:41:40;;;;;;;;;;;;;;;40.12;13.92;100080.59;4382723;32;33501;-86
2021/07/23 12:44:10;;;;;;;;;;;;;;;39.42;14.24;100075.47;4395978;32;34558;-85
2021/07/23 12:46:39;;;;;;;;;;;;;;;39.36;14.19;100083.75;4407189;32;35657;-86